createdAt,value
2023-03-26T00:00:42.941Z,7.62
2023-03-26T00:03:10.508Z,7.66
2023-03-26T00:05:38.002Z,7.64
2023-03-26T00:08:05.960Z,7.65
2023-03-26T00:10:34.765Z,7.61
2023-03-26T00:13:02.409Z,7.61
2023-03-26T00:15:29.853Z,7.60
2023-03-26T00:17:57.227Z,7.58
2023-03-26T00:20:24.464Z,7.55
2023-03-26T00:22:51.952Z,7.52
2023-03-26T00:25:19.205Z,7.54
2023-03-26T00:27:53.705Z,7.55
2023-03-26T00:30:20.971Z,7.54
2023-03-26T00:32:53.703Z,7.56
2023-03-26T00:35:21.410Z,7.56
2023-03-26T00:37:48.818Z,7.55
2023-03-26T00:40:16.310Z,7.52
2023-03-26T00:42:43.581Z,7.52
2023-03-26T00:45:12.640Z,7.50
2023-03-26T00:47:40.113Z,7.50
2023-03-26T00:50:08.743Z,7.48
2023-03-26T00:52:35.948Z,7.49
2023-03-26T00:55:03.347Z,7.46
2023-03-26T00:57:36.016Z,7.44
2023-03-26T01:00:12.926Z,7.45
2023-03-26T01:02:43.054Z,7.42
2023-03-26T01:05:43.855Z,7.41
2023-03-26T01:08:22.312Z,7.37
2023-03-26T01:10:50.901Z,7.31
2023-03-26T01:13:20.694Z,7.28
2023-03-26T01:15:49.547Z,7.27
2023-03-26T01:18:21.801Z,7.31
2023-03-26T01:20:50.899Z,7.27
2023-03-26T01:23:23.555Z,7.22
2023-03-26T01:26:04.526Z,7.27
2023-03-26T01:28:34.963Z,7.26
2023-03-26T01:31:09.795Z,7.25
2023-03-26T01:33:46.495Z,7.24
2023-03-26T01:36:20.678Z,7.24
2023-03-26T01:38:54.263Z,7.22
2023-03-26T01:41:30.161Z,7.23
2023-03-26T01:44:03.304Z,7.26
2023-03-26T01:46:33.809Z,7.31
2023-03-26T01:49:03.479Z,7.27
2023-03-26T01:51:33.151Z,7.30
2023-03-26T01:54:02.752Z,7.32
2023-03-26T01:56:44.645Z,7.28
2023-03-26T01:59:29.715Z,7.29
2023-03-26T02:02:03.687Z,7.36
2023-03-26T02:04:37.775Z,7.31
2023-03-26T02:07:08.532Z,7.31
2023-03-26T02:09:42.138Z,7.33
2023-03-26T02:12:11.363Z,7.35
2023-03-26T02:14:39.023Z,7.35
2023-03-26T02:17:06.329Z,7.38
2023-03-26T02:19:33.647Z,7.40
2023-03-26T02:22:01.260Z,7.43
2023-03-26T02:24:31.768Z,7.42
2023-03-26T02:26:59.304Z,7.40
2023-03-26T02:29:28.109Z,7.44
2023-03-26T02:31:55.629Z,7.42
2023-03-26T02:34:22.891Z,7.45
2023-03-26T02:36:51.846Z,7.45
2023-03-26T02:39:20.043Z,7.47
2023-03-26T02:41:55.310Z,7.48
2023-03-26T02:44:22.941Z,7.44
2023-03-26T02:47:00.538Z,7.46
2023-03-26T02:49:46.395Z,7.46
2023-03-26T02:52:20.793Z,7.49
2023-03-26T02:54:49.875Z,7.52
2023-03-26T02:57:19.822Z,7.49
2023-03-26T02:59:59.476Z,7.54
2023-03-26T03:02:37.258Z,7.55
2023-03-26T03:05:37.102Z,7.58
2023-03-26T03:08:12.927Z,7.53
2023-03-26T03:10:56.590Z,7.57
2023-03-26T03:13:33.695Z,7.61
2023-03-26T03:16:01.150Z,7.61
2023-03-26T03:18:29.891Z,7.62
2023-03-26T03:20:57.291Z,7.50
2023-03-26T03:23:24.581Z,7.58
2023-03-26T03:25:57.464Z,7.54
2023-03-26T03:28:25.695Z,7.52
2023-03-26T03:30:53.049Z,7.50
2023-03-26T03:33:28.891Z,7.55
2023-03-26T03:35:56.495Z,7.51
2023-03-26T03:38:24.671Z,7.53
2023-03-26T03:40:53.951Z,7.50
2023-03-26T03:43:21.302Z,7.42
2023-03-26T03:46:03.225Z,7.42
2023-03-26T03:48:37.192Z,7.42
2023-03-26T03:51:06.128Z,7.42
2023-03-26T03:53:44.298Z,7.39
2023-03-26T03:56:11.738Z,7.41
2023-03-26T03:58:59.010Z,7.40
2023-03-26T04:01:32.583Z,7.34
2023-03-26T04:04:13.819Z,7.43
2023-03-26T04:06:55.989Z,7.34
2023-03-26T04:09:25.597Z,7.37
2023-03-26T04:11:56.297Z,7.32
2023-03-26T04:14:35.873Z,7.35
2023-03-26T04:17:08.057Z,7.38
2023-03-26T04:19:39.334Z,7.32
2023-03-26T04:22:09.237Z,7.28
2023-03-26T04:24:43.637Z,7.24
2023-03-26T04:27:37.528Z,7.21
2023-03-26T04:30:20.225Z,7.24
2023-03-26T04:32:53.361Z,7.26
2023-03-26T04:35:22.217Z,7.20
2023-03-26T04:37:55.289Z,7.20
2023-03-26T04:40:34.671Z,7.09
2023-03-26T04:43:19.044Z,7.03
2023-03-26T04:46:04.695Z,7.00
2023-03-26T04:48:38.232Z,6.92
2023-03-26T04:51:09.168Z,6.85
2023-03-26T04:53:36.731Z,6.88
2023-03-26T04:56:44.353Z,6.79
2023-03-26T04:59:27.585Z,6.82
2023-03-26T05:01:56.422Z,6.77
2023-03-26T05:04:25.055Z,6.72
2023-03-26T05:06:54.164Z,6.83
2023-03-26T05:09:35.182Z,6.78
2023-03-26T05:12:28.226Z,6.84
2023-03-26T05:15:17.897Z,6.73
2023-03-26T05:18:14.766Z,6.76
2023-03-26T05:20:49.389Z,6.88
2023-03-26T05:23:18.073Z,6.87
2023-03-26T05:25:51.704Z,6.96
2023-03-26T05:28:21.360Z,7.02
2023-03-26T05:30:55.405Z,6.94
2023-03-26T05:33:24.861Z,6.98
2023-03-26T05:36:02.428Z,6.96
2023-03-26T05:38:55.610Z,7.03
2023-03-26T05:41:42.806Z,7.10
2023-03-26T05:44:10.508Z,7.11
2023-03-26T05:46:38.005Z,7.12
2023-03-26T05:49:05.656Z,7.06
2023-03-26T05:51:36.040Z,7.07
2023-03-26T05:54:31.350Z,7.15
2023-03-26T05:57:17.411Z,7.09
2023-03-26T06:00:14.287Z,7.10
2023-03-26T06:02:44.418Z,7.08
2023-03-26T06:05:35.806Z,7.10
2023-03-26T06:08:09.420Z,7.14
2023-03-26T06:10:39.783Z,7.14
2023-03-26T06:13:07.299Z,7.11
2023-03-26T06:15:38.180Z,7.17
2023-03-26T06:18:22.001Z,7.11
2023-03-26T06:21:08.114Z,7.20
2023-03-26T06:23:44.295Z,7.21
2023-03-26T06:26:39.434Z,7.08
2023-03-26T06:29:25.739Z,7.14
2023-03-26T06:32:25.641Z,7.25
2023-03-26T06:35:01.595Z,7.14
2023-03-26T06:37:29.115Z,7.13
2023-03-26T06:40:00.706Z,7.22
2023-03-26T06:43:09.021Z,7.32
2023-03-26T06:45:50.905Z,7.33
2023-03-26T06:48:36.990Z,7.32
2023-03-26T06:51:13.428Z,7.26
2023-03-26T06:53:59.353Z,7.33
2023-03-26T06:56:46.939Z,7.44
2023-03-26T06:59:31.118Z,7.24
2023-03-26T07:02:16.655Z,7.23
2023-03-26T07:05:22.713Z,7.32
2023-03-26T07:08:08.716Z,7.23
2023-03-26T07:10:54.790Z,7.24
2023-03-26T07:13:48.334Z,7.03
2023-03-26T07:16:35.899Z,7.12
2023-03-26T07:19:31.297Z,7.25
2023-03-26T07:21:59.373Z,7.41
2023-03-26T07:24:46.178Z,7.35
2023-03-26T07:27:47.447Z,7.38
2023-03-26T07:30:27.473Z,7.15
2023-03-26T07:33:19.636Z,6.99
2023-03-26T07:36:12.495Z,7.02
2023-03-26T07:39:09.306Z,6.99
2023-03-26T07:42:05.821Z,6.79
2023-03-26T07:45:01.823Z,6.84
2023-03-26T07:48:14.652Z,6.84
2023-03-26T07:51:07.991Z,6.90
2023-03-26T07:53:51.530Z,6.92
2023-03-26T07:56:41.521Z,7.01
2023-03-26T07:59:39.987Z,7.09
2023-03-26T08:03:12.779Z,7.29
2023-03-26T08:06:12.998Z,7.31
2023-03-26T08:08:56.871Z,7.31
2023-03-26T08:11:51.006Z,7.39
2023-03-26T08:14:41.161Z,7.55
2023-03-26T08:17:11.779Z,7.45
2023-03-26T08:19:47.994Z,7.54
2023-03-26T08:22:19.726Z,7.40
2023-03-26T08:25:02.551Z,7.62
2023-03-26T08:27:36.816Z,7.48
2023-03-26T08:30:08.704Z,7.56
2023-03-26T08:32:36.724Z,7.57
2023-03-26T08:35:04.797Z,7.65
2023-03-26T08:37:33.558Z,7.55
2023-03-26T08:40:01.210Z,7.73
2023-03-26T08:43:02.099Z,7.96
2023-03-26T08:45:59.099Z,8.07
2023-03-26T08:48:45.432Z,7.73
2023-03-26T08:51:45.027Z,7.69
2023-03-26T08:54:47.518Z,8.09
2023-03-26T08:58:02.831Z,8.31
2023-03-26T09:00:50.550Z,8.27
2023-03-26T09:03:37.442Z,8.36
2023-03-26T09:06:34.444Z,8.30
2023-03-26T09:09:37.316Z,8.36
2023-03-26T09:12:47.700Z,8.15
2023-03-26T09:15:34.188Z,7.93
2023-03-26T09:18:42.919Z,7.99
2023-03-26T09:21:32.619Z,8.61
2023-03-26T09:24:35.003Z,8.05
2023-03-26T09:27:35.493Z,8.13
2023-03-26T09:30:38.656Z,7.83
2023-03-26T09:33:51.225Z,8.23
2023-03-26T09:36:41.058Z,8.24
2023-03-26T09:39:16.456Z,8.25
2023-03-26T09:41:59.268Z,8.05
2023-03-26T09:44:52.480Z,8.18
2023-03-26T09:47:34.582Z,8.39
2023-03-26T09:50:30.353Z,8.65
2023-03-26T09:53:17.046Z,8.96
2023-03-26T09:55:53.364Z,8.79
2023-03-26T09:58:41.223Z,8.31
2023-03-26T10:01:15.683Z,8.50
2023-03-26T10:03:54.456Z,8.25
2023-03-26T10:06:41.320Z,8.99
2023-03-26T10:09:28.442Z,8.94
2023-03-26T10:12:10.714Z,9.02
2023-03-26T10:14:45.228Z,9.00
2023-03-26T10:17:31.174Z,8.98
2023-03-26T10:20:15.930Z,9.32
2023-03-26T10:22:59.150Z,8.82
2023-03-26T10:25:55.204Z,8.80
2023-03-26T10:28:46.904Z,8.90
2023-03-26T10:31:36.753Z,9.06
2023-03-26T10:34:28.998Z,9.22
2023-03-26T10:37:07.080Z,8.80
2023-03-26T10:39:52.867Z,9.09
2023-03-26T10:42:41.554Z,8.82
2023-03-26T10:45:37.714Z,8.89
2023-03-26T10:48:21.566Z,9.32
2023-03-26T10:51:12.095Z,9.05
2023-03-26T10:53:46.777Z,9.35
2023-03-26T10:56:21.694Z,9.75
2023-03-26T10:58:50.230Z,9.74
2023-03-26T11:01:27.546Z,10.12
2023-03-26T11:03:56.254Z,10.48
2023-03-26T11:06:42.932Z,10.31
2023-03-26T11:09:21.615Z,10.01
2023-03-26T11:11:56.291Z,10.00
2023-03-26T11:14:34.716Z,10.06
2023-03-26T11:17:15.118Z,9.72
2023-03-26T11:20:04.887Z,10.23
2023-03-26T11:22:46.973Z,10.09
2023-03-26T11:25:34.877Z,9.93
2023-03-26T11:28:14.371Z,9.87
2023-03-26T11:30:46.889Z,9.82
2023-03-26T11:33:18.788Z,9.71
2023-03-26T11:35:49.174Z,10.43
2023-03-26T11:38:22.179Z,10.62
2023-03-26T11:40:52.568Z,10.39
2023-03-26T11:43:34.858Z,10.46
2023-03-26T11:46:04.287Z,10.49
2023-03-26T11:48:35.770Z,9.91
2023-03-26T11:51:07.071Z,10.02
2023-03-26T11:53:36.775Z,10.09
2023-03-26T11:56:09.037Z,10.08
2023-03-26T11:58:43.061Z,10.31
2023-03-26T12:01:18.632Z,12.39
2023-03-26T12:03:57.370Z,11.88
2023-03-26T12:06:27.383Z,12.29
2023-03-26T12:08:56.432Z,12.21
2023-03-26T12:11:26.673Z,11.73
2023-03-26T12:13:58.100Z,11.82
2023-03-26T12:16:26.111Z,11.96
2023-03-26T12:19:02.021Z,11.41
2023-03-26T12:21:29.750Z,11.38
2023-03-26T12:24:00.800Z,11.30
2023-03-26T12:26:36.778Z,10.17
2023-03-26T12:29:12.451Z,10.35
2023-03-26T12:31:51.682Z,11.59
2023-03-26T12:34:20.950Z,13.02
2023-03-26T12:36:51.897Z,14.51
2023-03-26T12:40:09.551Z,15.87
2023-03-26T12:44:50.580Z,15.91
2023-03-26T12:45:16.134Z,15.97
2023-03-26T12:47:58.656Z,17.63
2023-03-26T12:50:50.038Z,15.58
2023-03-26T12:53:36.359Z,15.39
2023-03-26T12:56:12.336Z,15.57
2023-03-26T12:59:09.019Z,14.34
2023-03-26T13:01:52.347Z,13.04
2023-03-26T13:04:42.372Z,12.10
2023-03-26T13:07:24.349Z,11.98
2023-03-26T13:10:17.109Z,11.91
2023-03-26T13:12:54.197Z,13.33
2023-03-26T13:15:26.367Z,14.07
2023-03-26T13:18:11.575Z,15.00
2023-03-26T13:20:50.650Z,15.83
2023-03-26T13:23:29.594Z,16.40
2023-03-26T13:26:09.490Z,16.11
2023-03-26T13:28:47.426Z,14.38
2023-03-26T13:31:22.134Z,13.31
2023-03-26T13:33:57.631Z,11.76
2023-03-26T13:36:33.417Z,11.87
2023-03-26T13:39:22.620Z,11.84
2023-03-26T13:42:02.573Z,11.34
2023-03-26T13:44:45.832Z,12.19
2023-03-26T13:47:16.353Z,11.23
2023-03-26T13:49:51.298Z,10.77
2023-03-26T13:52:22.947Z,11.22
2023-03-26T13:54:56.842Z,12.33
2023-03-26T13:57:28.222Z,13.49
2023-03-26T14:00:02.756Z,14.61
2023-03-26T14:02:41.957Z,14.12
2023-03-26T14:05:17.441Z,14.32
2023-03-26T14:07:49.440Z,14.60
2023-03-26T14:10:20.589Z,14.72
2023-03-26T14:12:57.377Z,15.28
2023-03-26T14:15:30.602Z,14.95
2023-03-26T14:18:06.329Z,12.48
2023-03-26T14:21:01.900Z,11.18
2023-03-26T14:23:42.925Z,11.18
2023-03-26T14:26:23.817Z,12.10
2023-03-26T14:29:23.239Z,12.01
2023-03-26T14:32:01.565Z,13.67
2023-03-26T14:34:45.721Z,14.65
2023-03-26T14:37:29.012Z,15.50
2023-03-26T14:40:29.971Z,14.30
2023-03-26T14:43:49.155Z,13.14
2023-03-26T14:46:44.338Z,12.88
2023-03-26T14:49:55.555Z,12.42
2023-03-26T14:52:34.124Z,12.74
2023-03-26T14:55:10.593Z,12.17
2023-03-26T14:58:05.376Z,12.05
2023-03-26T15:01:15.869Z,11.97
2023-03-26T15:04:31.710Z,12.53
2023-03-26T15:07:29.265Z,12.23
2023-03-26T15:10:14.207Z,12.84
2023-03-26T15:12:54.359Z,13.24
2023-03-26T15:15:59.009Z,12.82
2023-03-26T15:19:01.634Z,13.67
2023-03-26T15:21:51.651Z,13.28
2023-03-26T15:25:03.607Z,11.99
2023-03-26T15:27:56.806Z,12.65
2023-03-26T15:30:51.971Z,12.39
2023-03-26T15:33:58.769Z,11.77
2023-03-26T15:37:01.300Z,12.11
2023-03-26T15:40:08.959Z,13.13
2023-03-26T15:42:46.778Z,13.69
2023-03-26T15:45:33.738Z,13.43
2023-03-26T15:48:21.474Z,13.20
2023-03-26T15:50:54.905Z,13.34
2023-03-26T15:53:33.795Z,14.42
2023-03-26T15:56:15.333Z,14.27
2023-03-26T15:58:54.227Z,14.32
2023-03-26T16:01:45.546Z,12.72
2023-03-26T16:04:23.311Z,12.06
2023-03-26T16:06:59.105Z,11.52
2023-03-26T16:09:41.155Z,12.44
2023-03-26T16:12:30.198Z,10.92
2023-03-26T16:15:23.035Z,10.78
2023-03-26T16:18:30.592Z,10.60
2023-03-26T16:21:43.173Z,9.54
2023-03-26T16:24:24.715Z,9.46
2023-03-26T16:27:05.568Z,10.15
2023-03-26T16:29:33.702Z,10.47
2023-03-26T16:32:22.739Z,11.20
2023-03-26T16:34:55.035Z,10.51
2023-03-26T16:38:04.249Z,11.90
2023-03-26T16:40:36.160Z,10.84
2023-03-26T16:43:17.331Z,10.25
2023-03-26T16:45:54.855Z,10.12
2023-03-26T16:48:29.206Z,10.07
2023-03-26T16:51:08.925Z,10.03
2023-03-26T16:53:45.084Z,10.06
2023-03-26T16:56:16.993Z,10.18
2023-03-26T16:58:53.775Z,10.39
2023-03-26T17:01:29.401Z,10.30
2023-03-26T17:04:00.784Z,9.90
2023-03-26T17:06:57.184Z,9.18
2023-03-26T17:09:33.702Z,9.46
2023-03-26T17:12:07.844Z,9.64
2023-03-26T17:14:45.615Z,9.51
2023-03-26T17:17:28.036Z,8.94
2023-03-26T17:20:02.796Z,8.43
2023-03-26T17:22:38.852Z,8.04
2023-03-26T17:25:32.342Z,8.14
2023-03-26T17:28:32.023Z,7.52
2023-03-26T17:31:14.534Z,7.41
2023-03-26T17:33:42.461Z,7.07
2023-03-26T17:36:29.463Z,6.82
2023-03-26T17:39:17.367Z,6.54
2023-03-26T17:42:12.965Z,6.49
2023-03-26T17:44:47.683Z,6.50
2023-03-26T17:47:35.592Z,6.26
2023-03-26T17:50:10.603Z,6.25
2023-03-26T17:53:01.822Z,6.07
2023-03-26T17:55:33.995Z,5.94
2023-03-26T17:58:03.731Z,5.89
2023-03-26T18:00:34.885Z,5.99
2023-03-26T18:03:07.835Z,5.89
2023-03-26T18:05:39.491Z,5.77
2023-03-26T18:08:44.681Z,5.73
2023-03-26T18:11:44.870Z,5.64
2023-03-26T18:14:39.331Z,5.48
2023-03-26T18:17:06.894Z,5.47
2023-03-26T18:19:46.967Z,5.36
2023-03-26T18:22:19.929Z,5.27
2023-03-26T18:24:47.824Z,5.25
2023-03-26T18:27:19.095Z,5.13
2023-03-26T18:30:02.685Z,5.16
2023-03-26T18:32:32.211Z,5.24
2023-03-26T18:35:02.054Z,5.13
2023-03-26T18:37:31.642Z,5.03
2023-03-26T18:40:02.094Z,5.10
2023-03-26T18:42:32.582Z,5.03
2023-03-26T18:45:05.131Z,4.98
2023-03-26T18:47:32.911Z,4.94
2023-03-26T18:50:06.657Z,4.86
2023-03-26T18:52:34.169Z,4.83
2023-03-26T18:55:03.110Z,4.87
2023-03-26T18:57:31.762Z,4.81
2023-03-26T19:00:15.480Z,4.81
2023-03-26T19:02:44.127Z,4.84
2023-03-26T19:05:15.021Z,4.83
2023-03-26T19:07:43.827Z,4.79
2023-03-26T19:10:16.317Z,4.73
2023-03-26T19:12:45.178Z,4.73
2023-03-26T19:15:14.571Z,4.72
2023-03-26T19:17:45.148Z,4.66
2023-03-26T19:20:18.198Z,4.59
2023-03-26T19:22:47.228Z,4.63
2023-03-26T19:25:21.277Z,4.67
2023-03-26T19:27:51.113Z,4.56
2023-03-26T19:30:28.576Z,4.49
2023-03-26T19:33:12.219Z,4.52
2023-03-26T19:35:43.194Z,4.51
2023-03-26T19:38:21.034Z,4.43
2023-03-26T19:40:50.654Z,4.49
2023-03-26T19:43:19.445Z,4.51
2023-03-26T19:45:59.606Z,4.44
2023-03-26T19:48:46.716Z,4.41
2023-03-26T19:51:20.649Z,4.37
2023-03-26T19:53:52.511Z,4.37
2023-03-26T19:56:20.908Z,4.36
2023-03-26T19:58:49.673Z,4.37
2023-03-26T20:01:19.513Z,4.41
2023-03-26T20:03:49.151Z,4.32
2023-03-26T20:06:18.630Z,4.27
2023-03-26T20:08:46.542Z,4.27
2023-03-26T20:11:16.271Z,4.30
2023-03-26T20:13:43.558Z,4.28
2023-03-26T20:16:18.330Z,4.28
2023-03-26T20:18:45.706Z,4.20
2023-03-26T20:21:13.642Z,4.17
2023-03-26T20:23:41.358Z,4.21
2023-03-26T20:26:12.130Z,4.26
2023-03-26T20:28:47.847Z,4.09
2023-03-26T20:31:19.864Z,4.09
2023-03-26T20:33:47.940Z,4.07
2023-03-26T20:36:33.229Z,4.08
2023-03-26T20:39:03.061Z,4.10
2023-03-26T20:41:30.263Z,4.07
2023-03-26T20:43:57.518Z,4.10
2023-03-26T20:46:31.529Z,4.02
2023-03-26T20:48:59.635Z,4.05
2023-03-26T20:51:27.376Z,4.04
2023-03-26T20:53:54.692Z,4.00
2023-03-26T20:56:22.077Z,3.96
2023-03-26T20:58:54.689Z,4.00
2023-03-26T21:01:29.379Z,3.93
2023-03-26T21:03:56.846Z,3.93
2023-03-26T21:06:24.169Z,3.96
2023-03-26T21:08:52.127Z,3.92
2023-03-26T21:11:26.494Z,3.88
2023-03-26T21:14:00.056Z,3.91
2023-03-26T21:16:29.664Z,3.91
2023-03-26T21:18:57.635Z,3.88
2023-03-26T21:21:42.406Z,3.85
2023-03-26T21:24:21.329Z,3.82
2023-03-26T21:26:54.643Z,3.77
2023-03-26T21:29:22.484Z,3.74
2023-03-26T21:31:53.870Z,3.66
2023-03-26T21:34:22.686Z,3.62
2023-03-26T21:36:50.521Z,3.62
2023-03-26T21:39:18.287Z,3.61
2023-03-26T21:41:48.888Z,3.62
2023-03-26T21:44:33.815Z,3.59
2023-03-26T21:47:03.142Z,3.51
2023-03-26T21:49:31.239Z,3.52
2023-03-26T21:51:59.112Z,3.51
2023-03-26T21:54:30.791Z,3.49
2023-03-26T21:57:10.853Z,3.38
2023-03-26T21:59:48.541Z,3.39
2023-03-26T22:02:22.882Z,3.36
2023-03-26T22:04:56.659Z,3.34
2023-03-26T22:07:30.212Z,3.35
2023-03-26T22:09:57.673Z,3.29
2023-03-26T22:12:24.915Z,3.33
2023-03-26T22:14:52.372Z,3.21
2023-03-26T22:17:20.915Z,3.20
2023-03-26T22:19:48.259Z,3.17
2023-03-26T22:22:15.478Z,3.17
2023-03-26T22:24:42.828Z,3.14
2023-03-26T22:27:10.090Z,3.14
2023-03-26T22:29:37.598Z,3.13
2023-03-26T22:32:05.530Z,3.10
2023-03-26T22:34:34.309Z,3.00
2023-03-26T22:37:01.548Z,2.93
2023-03-26T22:39:28.922Z,2.91
2023-03-26T22:41:56.174Z,2.87
2023-03-26T22:44:23.478Z,2.92
2023-03-26T22:46:50.710Z,2.93
2023-03-26T22:49:18.390Z,2.91
2023-03-26T22:51:46.994Z,2.94
2023-03-26T22:54:14.425Z,2.87
2023-03-26T22:56:41.702Z,2.86
2023-03-26T22:59:09.280Z,2.84
2023-03-26T23:01:38.022Z,2.79
2023-03-26T23:04:05.506Z,2.82
2023-03-26T23:06:32.730Z,2.81
2023-03-26T23:09:01.500Z,2.80
2023-03-26T23:11:28.769Z,2.79
2023-03-26T23:13:56.026Z,2.76
2023-03-26T23:16:23.297Z,2.69
2023-03-26T23:18:50.697Z,2.71
2023-03-26T23:21:20.153Z,2.71
2023-03-26T23:23:48.623Z,2.72
2023-03-26T23:26:17.326Z,2.68
2023-03-26T23:28:44.941Z,2.65
2023-03-26T23:31:13.092Z,2.62
2023-03-26T23:33:41.870Z,2.62
2023-03-26T23:36:09.803Z,2.56
2023-03-26T23:38:43.700Z,2.51
2023-03-26T23:41:12.162Z,2.58
2023-03-26T23:43:40.742Z,2.50
2023-03-26T23:46:23.584Z,2.41
2023-03-26T23:48:51.462Z,2.52
2023-03-26T23:51:19.606Z,2.51
2023-03-26T23:53:47.728Z,2.59
2023-03-26T23:56:15.106Z,2.54
2023-03-26T23:58:43.712Z,2.46
